createdAt,value
2018-12-25T00:00:20.545Z,92.80
2018-12-25T00:02:49.001Z,92.80
2018-12-25T00:05:17.450Z,92.80
2018-12-25T00:07:45.986Z,92.80
2018-12-25T00:10:14.509Z,92.90
2018-12-25T00:12:42.986Z,92.80
2018-12-25T00:15:11.514Z,92.90
2018-12-25T00:17:40.005Z,93.10
2018-12-25T00:20:08.465Z,93.40
2018-12-25T00:22:36.906Z,93.50
2018-12-25T00:25:05.433Z,93.30
2018-12-25T00:27:33.909Z,93.30
2018-12-25T00:30:02.647Z,93.30
2018-12-25T00:32:31.559Z,93.30
2018-12-25T00:34:59.989Z,93.60
2018-12-25T00:37:28.433Z,93.70
2018-12-25T00:39:56.886Z,93.70
2018-12-25T00:42:26.682Z,93.70
2018-12-25T00:44:55.201Z,93.70
2018-12-25T00:47:23.657Z,93.40
2018-12-25T00:49:52.096Z,92.90
2018-12-25T00:52:20.530Z,92.60
2018-12-25T00:54:49.249Z,92.90
2018-12-25T00:57:18.277Z,93.20
2018-12-25T00:59:47.015Z,93.50
2018-12-25T01:02:15.508Z,93.50
2018-12-25T01:04:44.046Z,93.50
2018-12-25T01:07:12.574Z,93.50
2018-12-25T01:09:41.078Z,93.40
2018-12-25T01:12:09.545Z,93.40
2018-12-25T01:14:37.987Z,93.40
2018-12-25T01:17:06.552Z,93.40
2018-12-25T01:19:35.666Z,93.50
2018-12-25T01:22:04.453Z,93.50
2018-12-25T01:24:32.997Z,93.50
2018-12-25T01:27:03.231Z,93.60
2018-12-25T01:29:31.804Z,93.70
2018-12-25T01:32:00.527Z,94.00
2018-12-25T01:34:28.981Z,94.40
2018-12-25T01:36:57.428Z,95.20
2018-12-25T01:39:26.278Z,96.00
2018-12-25T01:41:54.725Z,95.50
2018-12-25T01:44:23.178Z,94.20
2018-12-25T01:46:51.637Z,93.40
2018-12-25T01:49:20.091Z,92.60
2018-12-25T01:51:48.630Z,92.70
2018-12-25T01:54:17.361Z,92.80
2018-12-25T01:56:45.829Z,92.90
2018-12-25T01:59:14.288Z,93.10
2018-12-25T02:01:42.758Z,93.20
2018-12-25T02:04:11.271Z,93.30
2018-12-25T02:06:39.705Z,93.40
2018-12-25T02:09:08.165Z,93.50
2018-12-25T02:11:36.934Z,93.50
2018-12-25T02:14:05.373Z,93.50
2018-12-25T02:16:33.830Z,93.60
2018-12-25T02:19:02.689Z,93.40
2018-12-25T02:21:31.150Z,93.30
2018-12-25T02:23:59.593Z,93.10
2018-12-25T02:26:28.058Z,92.90
2018-12-25T02:28:56.557Z,93.10
2018-12-25T02:31:25.001Z,93.30
2018-12-25T02:33:53.698Z,93.40
2018-12-25T02:36:22.141Z,93.30
2018-12-25T02:38:50.603Z,93.10
2018-12-25T02:41:19.498Z,93.20
2018-12-25T02:43:47.939Z,93.30
2018-12-25T02:46:16.403Z,93.30
2018-12-25T02:48:44.843Z,93.30
2018-12-25T02:51:13.378Z,93.40
2018-12-25T02:53:41.826Z,93.40
2018-12-25T02:56:10.362Z,93.40
2018-12-25T02:58:38.823Z,93.40
2018-12-25T03:01:07.402Z,93.40
2018-12-25T03:03:35.866Z,93.40
2018-12-25T03:06:04.371Z,93.40
2018-12-25T03:08:33.750Z,93.40
2018-12-25T03:11:03.213Z,93.40
2018-12-25T03:13:32.215Z,93.40
2018-12-25T03:16:01.791Z,93.50
2018-12-25T03:18:31.093Z,93.60
2018-12-25T03:20:59.518Z,93.70
2018-12-25T03:23:28.049Z,93.70
2018-12-25T03:25:56.494Z,93.70
2018-12-25T03:28:24.953Z,93.60
2018-12-25T03:30:53.410Z,93.60
2018-12-25T03:33:21.846Z,93.60
2018-12-25T03:35:50.374Z,93.90
2018-12-25T03:38:18.829Z,93.70
2018-12-25T03:40:47.670Z,93.70
2018-12-25T03:43:16.115Z,93.60
2018-12-25T03:45:44.558Z,93.60
2018-12-25T03:48:13.018Z,93.50
2018-12-25T03:50:41.466Z,93.40
2018-12-25T03:53:09.945Z,93.60
2018-12-25T03:55:38.478Z,93.70
2018-12-25T03:58:06.918Z,93.70
2018-12-25T04:00:35.367Z,93.60
2018-12-25T04:03:03.934Z,93.70
2018-12-25T04:05:32.366Z,95.50
2018-12-25T04:08:01.109Z,93.50
2018-12-25T04:10:29.635Z,93.70
2018-12-25T04:12:58.171Z,93.70
2018-12-25T04:15:27.168Z,93.70
2018-12-25T04:17:56.388Z,93.60
2018-12-25T04:20:26.009Z,93.50
2018-12-25T04:22:55.662Z,93.60
2018-12-25T04:25:25.106Z,93.70
2018-12-25T04:27:54.278Z,94.00
2018-12-25T04:30:23.294Z,93.70
2018-12-25T04:32:52.118Z,93.60
2018-12-25T04:35:20.651Z,93.60
2018-12-25T04:37:49.140Z,93.60
2018-12-25T04:40:17.969Z,93.50
2018-12-25T04:42:46.405Z,92.90
2018-12-25T04:45:14.871Z,91.50
2018-12-25T04:47:43.309Z,92.50
2018-12-25T04:50:11.792Z,92.30
2018-12-25T04:52:40.407Z,92.80
2018-12-25T04:55:08.921Z,93.10
2018-12-25T04:57:37.862Z,93.50
2018-12-25T05:00:06.856Z,93.60
2018-12-25T05:02:35.378Z,93.50
2018-12-25T05:05:04.190Z,93.60
2018-12-25T05:07:32.898Z,93.80
2018-12-25T05:10:01.683Z,93.90
2018-12-25T05:12:30.126Z,94.00
2018-12-25T05:14:58.829Z,94.00
2018-12-25T05:17:27.268Z,93.90
2018-12-25T05:19:55.953Z,94.00
2018-12-25T05:22:24.481Z,93.90
2018-12-25T05:24:53.182Z,94.00
2018-12-25T05:27:21.641Z,93.90
2018-12-25T05:29:50.792Z,93.70
2018-12-25T05:32:19.405Z,93.80
2018-12-25T05:34:47.867Z,93.90
2018-12-25T05:37:16.337Z,93.60
2018-12-25T05:39:44.818Z,93.50
2018-12-25T05:42:13.289Z,93.50
2018-12-25T05:44:43.398Z,93.10
2018-12-25T05:47:12.273Z,93.00
2018-12-25T05:49:40.705Z,92.70
2018-12-25T05:52:09.145Z,92.10
2018-12-25T05:54:37.597Z,92.00
2018-12-25T05:57:06.022Z,92.20
2018-12-25T05:59:34.490Z,90.30
2018-12-25T06:02:02.931Z,89.50
2018-12-25T06:04:31.429Z,88.70
2018-12-25T06:06:59.890Z,90.30
2018-12-25T06:09:28.327Z,91.40
2018-12-25T06:11:56.777Z,91.70
2018-12-25T06:14:25.214Z,91.60
2018-12-25T06:16:53.945Z,91.70
2018-12-25T06:19:22.630Z,91.60
2018-12-25T06:21:51.089Z,90.90
2018-12-25T06:24:19.618Z,90.10
2018-12-25T06:26:48.069Z,90.70
2018-12-25T06:29:16.861Z,91.20
2018-12-25T06:31:45.297Z,90.90
2018-12-25T06:34:13.757Z,90.70
2018-12-25T06:36:42.282Z,90.90
2018-12-25T06:39:10.829Z,90.60
2018-12-25T06:41:39.498Z,90.70
2018-12-25T06:44:07.962Z,90.90
2018-12-25T06:46:36.393Z,91.10
2018-12-25T06:49:04.828Z,91.50
2018-12-25T06:51:33.297Z,91.20
2018-12-25T06:54:01.802Z,91.70
2018-12-25T06:56:30.301Z,91.10
2018-12-25T06:58:58.739Z,91.60
2018-12-25T07:01:27.179Z,91.40
2018-12-25T07:03:55.658Z,91.10
2018-12-25T07:06:24.136Z,90.40
2018-12-25T07:08:52.598Z,90.80
2018-12-25T07:11:21.034Z,90.40
2018-12-25T07:13:49.469Z,90.50
2018-12-25T07:16:17.926Z,90.90
2018-12-25T07:18:46.359Z,90.70
2018-12-25T07:21:14.818Z,90.20
2018-12-25T07:23:43.274Z,88.10
2018-12-25T07:26:12.018Z,88.60
2018-12-25T07:28:40.467Z,89.40
2018-12-25T07:31:08.902Z,89.10
2018-12-25T07:33:37.362Z,87.40
2018-12-25T07:36:05.797Z,86.60
2018-12-25T07:38:34.246Z,86.50
2018-12-25T07:41:02.705Z,88.00
2018-12-25T07:43:31.145Z,85.10
2018-12-25T07:45:59.714Z,76.60
2018-12-25T07:48:28.151Z,78.80
2018-12-25T07:50:56.592Z,83.20
2018-12-25T07:53:25.066Z,84.00
2018-12-25T07:55:53.583Z,80.40
2018-12-25T07:58:22.033Z,83.70
2018-12-25T08:00:50.466Z,86.40
2018-12-25T08:03:18.961Z,83.20
2018-12-25T08:05:47.426Z,84.10
2018-12-25T08:08:15.863Z,86.60
2018-12-25T08:10:44.355Z,90.20
2018-12-25T08:13:12.848Z,85.80
2018-12-25T08:15:41.419Z,88.20
2018-12-25T08:18:10.447Z,88.60
2018-12-25T08:20:39.029Z,84.90
2018-12-25T08:23:07.541Z,86.90
2018-12-25T08:25:36.093Z,82.90
2018-12-25T08:28:04.630Z,87.10
2018-12-25T08:30:33.091Z,86.00
2018-12-25T08:33:01.614Z,84.80
2018-12-25T08:35:30.080Z,74.70
2018-12-25T08:37:58.746Z,76.80
2018-12-25T08:40:27.178Z,81.50
2018-12-25T08:42:55.641Z,83.50
2018-12-25T08:45:24.168Z,85.60
2018-12-25T08:47:52.642Z,85.80
2018-12-25T08:50:21.117Z,75.80
2018-12-25T08:52:49.685Z,77.80
2018-12-25T08:55:18.130Z,60.00
2018-12-25T08:57:46.557Z,68.90
2018-12-25T09:00:15.082Z,75.20
2018-12-25T09:02:43.797Z,75.50
2018-12-25T09:05:12.465Z,71.60
2018-12-25T09:07:40.914Z,74.00
2018-12-25T09:10:09.338Z,73.50
2018-12-25T09:12:37.796Z,63.90
2018-12-25T09:15:06.337Z,74.20
2018-12-25T09:17:34.841Z,76.90
2018-12-25T09:20:04.154Z,57.70
2018-12-25T09:22:32.893Z,65.40
2018-12-25T09:25:01.381Z,67.20
2018-12-25T09:27:29.942Z,75.30
2018-12-25T09:29:58.725Z,59.40
2018-12-25T09:32:27.281Z,71.60
2018-12-25T09:34:55.719Z,71.30
2018-12-25T09:37:24.169Z,68.10
2018-12-25T09:39:52.957Z,67.90
2018-12-25T09:42:22.206Z,52.80
2018-12-25T09:44:50.658Z,53.80
2018-12-25T09:47:19.118Z,57.60
2018-12-25T09:49:47.684Z,61.80
2018-12-25T09:52:16.172Z,62.60
2018-12-25T09:54:44.606Z,65.80
2018-12-25T09:57:13.054Z,62.20
2018-12-25T09:59:41.582Z,66.00
2018-12-25T10:02:10.030Z,69.00
2018-12-25T10:04:38.491Z,67.70
2018-12-25T10:07:07.152Z,54.10
2018-12-25T10:09:35.956Z,42.40
2018-12-25T10:12:04.473Z,27.00
2018-12-25T10:14:33.141Z,44.80
2018-12-25T10:17:01.749Z,41.40
2018-12-25T10:19:30.266Z,47.00
2018-12-25T10:22:02.887Z,45.80
2018-12-25T10:24:28.975Z,52.00
2018-12-25T10:26:57.891Z,45.70
2018-12-25T10:29:26.344Z,40.80
2018-12-25T10:31:54.774Z,66.30
2018-12-25T10:34:23.214Z,37.10
2018-12-25T10:36:52.006Z,30.90
2018-12-25T10:39:20.497Z,6.20
2018-12-25T10:41:49.037Z,17.70
2018-12-25T10:44:17.477Z,20.10
2018-12-25T10:46:46.074Z,31.50
2018-12-25T10:49:14.525Z,32.20
2018-12-25T10:51:42.960Z,27.50
2018-12-25T10:54:11.421Z,39.00
2018-12-25T10:56:39.858Z,33.60
2018-12-25T10:59:08.670Z,40.70
2018-12-25T11:01:43.609Z,26.00
2018-12-25T11:04:12.194Z,32.00
2018-12-25T11:06:40.645Z,11.10
2018-12-25T11:09:09.083Z,21.60
2018-12-25T11:11:37.632Z,38.10
2018-12-25T11:14:06.221Z,19.80
2018-12-25T11:16:34.722Z,21.80
2018-12-25T11:19:03.288Z,17.30
2018-12-25T11:21:31.772Z,1.00
2018-12-25T11:24:00.206Z,16.00
2018-12-25T11:26:29.006Z,33.60
2018-12-25T11:28:57.498Z,28.70
2018-12-25T11:31:25.958Z,29.30
2018-12-25T11:33:54.393Z,10.60
2018-12-25T11:36:22.818Z,1.00
2018-12-25T11:38:51.606Z,1.00
2018-12-25T11:41:20.029Z,20.50
2018-12-25T11:43:48.485Z,13.10
2018-12-25T11:46:16.916Z,9.00
2018-12-25T11:48:45.426Z,1.00
2018-12-25T11:51:13.870Z,3.90
2018-12-25T11:53:42.366Z,1.00
2018-12-25T11:56:10.817Z,13.90
2018-12-25T11:58:39.318Z,6.10
2018-12-25T12:01:08.034Z,1.00
2018-12-25T12:03:36.470Z,8.40
2018-12-25T12:06:04.902Z,21.10
2018-12-25T12:08:33.357Z,10.70
2018-12-25T12:11:01.953Z,1.00
2018-12-25T12:13:30.388Z,1.00
2018-12-25T12:15:58.834Z,4.00
2018-12-25T12:18:27.263Z,7.90
2018-12-25T12:20:55.711Z,1.00
2018-12-25T12:23:24.138Z,7.90
2018-12-25T12:25:52.830Z,6.00
2018-12-25T12:28:21.496Z,6.10
2018-12-25T12:30:49.990Z,1.00
2018-12-25T12:33:18.502Z,1.00
2018-12-25T12:35:46.934Z,1.00
2018-12-25T12:38:15.441Z,13.00
2018-12-25T12:40:43.908Z,1.70
2018-12-25T12:43:12.641Z,1.00
2018-12-25T12:45:41.082Z,1.00
2018-12-25T12:48:09.525Z,3.50
2018-12-25T12:50:37.954Z,13.20
2018-12-25T12:53:06.745Z,1.00
2018-12-25T12:55:35.169Z,3.50
2018-12-25T12:58:03.596Z,1.00
2018-12-25T13:00:32.038Z,1.40
2018-12-25T13:03:00.721Z,5.00
2018-12-25T13:05:29.405Z,1.00
2018-12-25T13:07:57.841Z,5.20
2018-12-25T13:10:26.682Z,1.00
2018-12-25T13:12:55.133Z,1.00
2018-12-25T13:15:23.565Z,1.00
2018-12-25T13:17:52.098Z,1.00
2018-12-25T13:20:20.822Z,1.00
2018-12-25T13:22:54.089Z,1.00
2018-12-25T13:25:20.009Z,1.00
2018-12-25T13:27:48.457Z,1.00
2018-12-25T13:30:17.234Z,1.00
2018-12-25T13:32:45.749Z,1.00
2018-12-25T13:35:14.182Z,1.00
2018-12-25T13:37:42.745Z,21.60
2018-12-25T13:40:11.202Z,1.00
2018-12-25T13:42:39.669Z,1.00
2018-12-25T13:45:08.138Z,16.30
2018-12-25T13:47:36.559Z,1.00
2018-12-25T13:50:08.478Z,1.00
2018-12-25T13:52:36.897Z,1.00
2018-12-25T13:55:05.634Z,1.00
2018-12-25T13:57:34.077Z,1.00
2018-12-25T14:00:02.789Z,1.00
2018-12-25T14:02:31.233Z,1.00
2018-12-25T14:04:59.681Z,1.00
2018-12-25T14:07:28.106Z,1.00
2018-12-25T14:09:56.818Z,99.90
2018-12-25T14:12:25.245Z,1.00
2018-12-25T14:14:53.666Z,1.00
2018-12-25T14:17:22.109Z,99.90
2018-12-25T14:19:50.573Z,1.00
2018-12-25T14:22:19.030Z,99.90
2018-12-25T14:24:47.464Z,1.00
2018-12-25T14:27:15.882Z,1.00
2018-12-25T14:29:44.326Z,1.00
2018-12-25T14:32:12.758Z,1.00
2018-12-25T14:34:41.214Z,1.00
2018-12-25T14:37:09.657Z,1.00
2018-12-25T14:39:38.110Z,1.00
2018-12-25T14:42:06.557Z,1.00
2018-12-25T14:44:34.991Z,1.00
2018-12-25T14:47:03.429Z,1.00
2018-12-25T14:49:31.948Z,1.00
2018-12-25T14:52:00.374Z,1.00
2018-12-25T14:54:28.874Z,1.00
2018-12-25T14:56:57.462Z,1.00
2018-12-25T14:59:25.885Z,1.00
2018-12-25T15:01:54.334Z,1.00
2018-12-25T15:04:22.821Z,1.00
2018-12-25T15:06:51.277Z,6.10
2018-12-25T15:09:19.716Z,10.70
2018-12-25T15:11:48.141Z,12.90
2018-12-25T15:14:16.911Z,15.80
2018-12-25T15:16:45.444Z,13.20
2018-12-25T15:19:13.985Z,16.30
2018-12-25T15:21:42.677Z,24.40
2018-12-25T15:24:11.106Z,26.10
2018-12-25T15:26:39.549Z,27.40
2018-12-25T15:29:07.994Z,31.60
2018-12-25T15:31:36.425Z,36.80
2018-12-25T15:34:04.925Z,41.00
2018-12-25T15:36:33.473Z,45.40
2018-12-25T15:39:01.935Z,44.70
2018-12-25T15:41:30.407Z,47.20
2018-12-25T15:43:58.829Z,49.80
2018-12-25T15:46:27.327Z,52.90
2018-12-25T15:48:55.782Z,54.60
2018-12-25T15:51:24.259Z,54.80
2018-12-25T15:53:52.726Z,57.70
2018-12-25T15:56:21.153Z,57.10
2018-12-25T15:58:51.321Z,61.50
2018-12-25T16:01:20.331Z,63.40
2018-12-25T16:03:48.817Z,65.50
2018-12-25T16:06:17.270Z,71.70
2018-12-25T16:08:46.882Z,74.80
2018-12-25T16:11:16.678Z,76.30
2018-12-25T16:13:45.517Z,74.70
2018-12-25T16:16:14.253Z,77.70
2018-12-25T16:18:42.789Z,78.80
2018-12-25T16:21:11.313Z,79.80
2018-12-25T16:23:45.360Z,81.50
2018-12-25T16:26:10.026Z,83.00
2018-12-25T16:28:38.475Z,83.30
2018-12-25T16:31:07.040Z,84.20
2018-12-25T16:33:35.646Z,83.30
2018-12-25T16:36:04.089Z,82.90
2018-12-25T16:38:32.617Z,82.00
2018-12-25T16:41:01.164Z,81.80
2018-12-25T16:43:29.865Z,81.70
2018-12-25T16:45:58.418Z,81.40
2018-12-25T16:48:26.855Z,82.10
2018-12-25T16:50:55.587Z,80.10
2018-12-25T16:53:24.040Z,78.40
2018-12-25T16:55:52.835Z,77.60
2018-12-25T16:58:21.565Z,79.00
2018-12-25T17:00:50.243Z,80.80
2018-12-25T17:03:18.994Z,82.90
2018-12-25T17:05:47.450Z,83.30
2018-12-25T17:08:16.049Z,82.20
2018-12-25T17:10:44.657Z,83.90
2018-12-25T17:13:13.101Z,85.60
2018-12-25T17:15:42.880Z,85.40
2018-12-25T17:18:11.353Z,84.50
2018-12-25T17:20:39.900Z,84.20
2018-12-25T17:23:08.347Z,84.50
2018-12-25T17:25:36.881Z,83.60
2018-12-25T17:28:05.374Z,83.80
2018-12-25T17:30:33.814Z,82.60
2018-12-25T17:33:02.277Z,83.90
2018-12-25T17:35:31.772Z,84.10
2018-12-25T17:38:00.242Z,83.60
2018-12-25T17:40:28.802Z,83.20
2018-12-25T17:42:57.284Z,84.20
2018-12-25T17:45:25.734Z,85.80
2018-12-25T17:47:54.191Z,89.50
2018-12-25T17:50:22.626Z,90.30
2018-12-25T17:52:51.113Z,90.10
2018-12-25T17:55:19.562Z,89.90
2018-12-25T17:57:48.005Z,90.10
2018-12-25T18:00:16.490Z,90.50
2018-12-25T18:02:45.056Z,90.60
2018-12-25T18:05:13.494Z,90.50
2018-12-25T18:07:41.957Z,90.40
2018-12-25T18:10:10.458Z,90.20
2018-12-25T18:12:38.925Z,89.90
2018-12-25T18:15:07.515Z,89.80
2018-12-25T18:17:35.984Z,89.90
2018-12-25T18:20:05.838Z,90.10
2018-12-25T18:22:34.377Z,90.00
2018-12-25T18:25:02.866Z,89.90
2018-12-25T18:27:31.350Z,90.40
2018-12-25T18:29:59.786Z,90.10
2018-12-25T18:32:28.258Z,90.30
2018-12-25T18:34:56.698Z,90.60
2018-12-25T18:37:25.183Z,90.60
2018-12-25T18:39:54.774Z,90.70
2018-12-25T18:42:23.441Z,90.80
2018-12-25T18:44:52.259Z,91.20
2018-12-25T18:47:20.725Z,91.40
2018-12-25T18:49:49.169Z,91.20
2018-12-25T18:52:17.633Z,91.10
2018-12-25T18:54:46.361Z,91.20
2018-12-25T18:57:14.889Z,91.10
2018-12-25T18:59:43.341Z,90.30
2018-12-25T19:02:11.818Z,90.30
2018-12-25T19:04:40.288Z,90.30
2018-12-25T19:07:08.812Z,90.80
2018-12-25T19:09:37.388Z,90.70
2018-12-25T19:12:06.053Z,90.00
2018-12-25T19:14:35.158Z,89.70
2018-12-25T19:17:03.664Z,89.90
2018-12-25T19:19:32.492Z,90.20
2018-12-25T19:22:01.169Z,90.40
2018-12-25T19:24:36.214Z,89.50
2018-12-25T19:26:59.873Z,88.20
2018-12-25T19:29:28.506Z,89.90
2018-12-25T19:31:57.018Z,90.40
2018-12-25T19:34:25.453Z,90.80
2018-12-25T19:36:53.909Z,90.90
2018-12-25T19:39:22.398Z,90.30
2018-12-25T19:41:50.944Z,90.30
2018-12-25T19:44:19.536Z,84.80
2018-12-25T19:46:48.026Z,87.50
2018-12-25T19:49:16.494Z,90.20
2018-12-25T19:51:45.054Z,91.10
2018-12-25T19:54:13.773Z,91.20
2018-12-25T19:56:42.510Z,91.30
2018-12-25T19:59:11.019Z,91.10
2018-12-25T20:01:39.481Z,90.60
2018-12-25T20:04:10.512Z,90.60
2018-12-25T20:06:47.994Z,91.00
2018-12-25T20:09:28.206Z,91.80
2018-12-25T20:12:05.249Z,91.50
2018-12-25T20:14:53.573Z,91.60
2018-12-25T20:17:34.142Z,91.90
2018-12-25T20:20:25.525Z,91.70
2018-12-25T20:22:59.923Z,91.90
2018-12-25T20:25:34.275Z,92.10
2018-12-25T20:28:22.559Z,92.70
2018-12-25T20:31:23.069Z,92.50
2018-12-25T20:34:11.102Z,92.50
2018-12-25T20:37:12.441Z,92.10
2018-12-25T20:40:00.573Z,92.00
2018-12-25T20:42:38.474Z,92.10
2018-12-25T20:45:32.277Z,92.40
2018-12-25T20:48:21.858Z,92.50
2018-12-25T20:51:01.666Z,91.60
2018-12-25T20:53:57.569Z,90.30
2018-12-25T20:56:38.012Z,90.40
2018-12-25T20:59:24.822Z,91.00
2018-12-25T21:02:19.069Z,91.90
2018-12-25T21:05:23.841Z,91.60
2018-12-25T21:08:12.437Z,91.90
2018-12-25T21:11:19.380Z,92.00
2018-12-25T21:14:18.209Z,92.30
2018-12-25T21:17:16.870Z,92.10
2018-12-25T21:20:10.776Z,92.20
2018-12-25T21:23:15.786Z,92.20
2018-12-25T21:26:20.966Z,92.30
2018-12-25T21:28:49.470Z,92.00
2018-12-25T21:31:18.391Z,92.10
2018-12-25T21:33:47.522Z,92.50
2018-12-25T21:36:16.298Z,92.30
2018-12-25T21:38:44.833Z,92.20
2018-12-25T21:41:14.842Z,91.60
2018-12-25T21:43:43.626Z,90.60
2018-12-25T21:46:12.157Z,90.80
2018-12-25T21:48:41.537Z,90.20
2018-12-25T21:51:10.089Z,91.40
2018-12-25T21:53:39.022Z,91.20
2018-12-25T21:56:07.906Z,90.70
2018-12-25T21:58:36.833Z,90.40
2018-12-25T22:01:05.345Z,89.40
2018-12-25T22:03:34.186Z,90.80
2018-12-25T22:06:05.042Z,91.30
2018-12-25T22:08:33.153Z,91.60
2018-12-25T22:11:01.622Z,91.50
2018-12-25T22:13:30.062Z,91.30
2018-12-25T22:15:58.659Z,91.10
2018-12-25T22:18:27.254Z,90.70
2018-12-25T22:20:55.773Z,90.40
2018-12-25T22:23:24.509Z,90.40
2018-12-25T22:25:53.067Z,89.60
2018-12-25T22:28:21.667Z,87.60
2018-12-25T22:30:50.309Z,87.10
2018-12-25T22:33:18.770Z,86.20
2018-12-25T22:35:47.258Z,84.40
2018-12-25T22:38:15.696Z,85.60
2018-12-25T22:40:44.161Z,85.80
2018-12-25T22:43:12.605Z,87.30
2018-12-25T22:45:41.065Z,85.90
2018-12-25T22:48:09.832Z,86.40
2018-12-25T22:50:38.305Z,86.10
2018-12-25T22:53:06.958Z,84.20
2018-12-25T22:55:36.184Z,83.70
2018-12-25T22:58:04.711Z,77.80
2018-12-25T23:00:33.494Z,83.10
2018-12-25T23:03:02.022Z,85.50
2018-12-25T23:05:30.469Z,85.70
2018-12-25T23:07:58.909Z,86.40
2018-12-25T23:10:27.377Z,85.50
2018-12-25T23:12:55.825Z,83.40
2018-12-25T23:15:24.294Z,82.70
2018-12-25T23:17:52.819Z,84.80
2018-12-25T23:20:28.642Z,87.70
2018-12-25T23:22:51.777Z,89.10
2018-12-25T23:25:20.535Z,90.60
2018-12-25T23:27:49.050Z,90.80
2018-12-25T23:30:17.794Z,90.50
2018-12-25T23:32:46.262Z,90.00
2018-12-25T23:35:14.790Z,90.50
2018-12-25T23:37:43.546Z,91.40
2018-12-25T23:40:12.100Z,92.10
2018-12-25T23:42:40.586Z,91.90
2018-12-25T23:45:09.174Z,90.80
2018-12-25T23:47:37.741Z,90.30
2018-12-25T23:50:06.206Z,90.70
2018-12-25T23:52:34.650Z,91.00
2018-12-25T23:55:03.110Z,91.00
2018-12-25T23:57:31.550Z,91.50
